sensor_id;sensor_type;location;lat;lon;timestamp;P1;durP1;ratioP1;P2;durP2;ratioP2
66739;SDS011;53653;52.188;8.602;2023-02-04T00:00:10;20.25;;;2.75;;
66739;SDS011;53653;52.188;8.602;2023-02-04T00:02:38;20.45;;;2.88;;
66739;SDS011;53653;52.188;8.602;2023-02-04T00:05:04;22.75;;;4.18;;
66739;SDS011;53653;52.188;8.602;2023-02-04T00:07:30;31.27;;;5.53;;
66739;SDS011;53653;52.188;8.602;2023-02-04T00:09:55;18.30;;;3.08;;
66739;SDS011;53653;52.188;8.602;2023-02-04T00:12:21;28.10;;;3.40;;
66739;SDS011;53653;52.188;8.602;2023-02-04T00:14:46;37.00;;;3.80;;
66739;SDS011;53653;52.188;8.602;2023-02-04T00:17:12;29.80;;;3.78;;
66739;SDS011;53653;52.188;8.602;2023-02-04T00:19:38;20.13;;;3.57;;
66739;SDS011;53653;52.188;8.602;2023-02-04T00:22:04;28.80;;;4.43;;
66739;SDS011;53653;52.188;8.602;2023-02-04T00:24:31;33.38;;;5.20;;
66739;SDS011;53653;52.188;8.602;2023-02-04T00:26:58;25.53;;;3.97;;
66739;SDS011;53653;52.188;8.602;2023-02-04T00:29:23;30.08;;;4.40;;
66739;SDS011;53653;52.188;8.602;2023-02-04T00:31:49;28.40;;;4.30;;
66739;SDS011;53653;52.188;8.602;2023-02-04T00:34:14;33.60;;;4.53;;
66739;SDS011;53653;52.188;8.602;2023-02-04T00:36:40;33.33;;;5.28;;
66739;SDS011;53653;52.188;8.602;2023-02-04T00:39:05;30.30;;;5.50;;
66739;SDS011;53653;52.188;8.602;2023-02-04T00:41:31;30.17;;;7.13;;
66739;SDS011;53653;52.188;8.602;2023-02-04T00:43:56;31.03;;;4.80;;
66739;SDS011;53653;52.188;8.602;2023-02-04T00:46:22;33.75;;;4.82;;
66739;SDS011;53653;52.188;8.602;2023-02-04T00:48:48;28.70;;;4.07;;
66739;SDS011;53653;52.188;8.602;2023-02-04T00:51:13;27.67;;;3.83;;
66739;SDS011;53653;52.188;8.602;2023-02-04T00:53:39;24.07;;;3.07;;
66739;SDS011;53653;52.188;8.602;2023-02-04T00:56:04;23.52;;;3.80;;
66739;SDS011;53653;52.188;8.602;2023-02-04T00:58:30;23.63;;;3.50;;
66739;SDS011;53653;52.188;8.602;2023-02-04T01:00:55;23.77;;;3.50;;
66739;SDS011;53653;52.188;8.602;2023-02-04T01:03:21;20.85;;;3.58;;
66739;SDS011;53653;52.188;8.602;2023-02-04T01:05:46;26.50;;;3.90;;
66739;SDS011;53653;52.188;8.602;2023-02-04T01:08:11;34.13;;;3.13;;
66739;SDS011;53653;52.188;8.602;2023-02-04T01:10:37;21.90;;;3.20;;
66739;SDS011;53653;52.188;8.602;2023-02-04T01:13:02;22.80;;;2.83;;
66739;SDS011;53653;52.188;8.602;2023-02-04T01:15:28;29.30;;;3.77;;
66739;SDS011;53653;52.188;8.602;2023-02-04T01:17:53;31.87;;;4.07;;
66739;SDS011;53653;52.188;8.602;2023-02-04T01:20:19;35.92;;;4.82;;
66739;SDS011;53653;52.188;8.602;2023-02-04T01:22:47;24.17;;;3.50;;
66739;SDS011;53653;52.188;8.602;2023-02-04T01:25:12;22.08;;;3.83;;
66739;SDS011;53653;52.188;8.602;2023-02-04T01:27:39;24.02;;;4.07;;
66739;SDS011;53653;52.188;8.602;2023-02-04T01:30:04;31.90;;;4.00;;
66739;SDS011;53653;52.188;8.602;2023-02-04T01:32:32;25.23;;;3.58;;
66739;SDS011;53653;52.188;8.602;2023-02-04T01:34:57;31.87;;;3.87;;
66739;SDS011;53653;52.188;8.602;2023-02-04T01:37:23;22.90;;;3.23;;
66739;SDS011;53653;52.188;8.602;2023-02-04T01:39:50;25.30;;;3.25;;
66739;SDS011;53653;52.188;8.602;2023-02-04T01:42:15;30.23;;;4.20;;
66739;SDS011;53653;52.188;8.602;2023-02-04T01:44:41;21.70;;;4.32;;
66739;SDS011;53653;52.188;8.602;2023-02-04T01:47:07;34.23;;;3.43;;
66739;SDS011;53653;52.188;8.602;2023-02-04T01:49:33;23.98;;;3.78;;
66739;SDS011;53653;52.188;8.602;2023-02-04T01:51:59;25.37;;;3.63;;
66739;SDS011;53653;52.188;8.602;2023-02-04T01:54:25;31.70;;;3.83;;
66739;SDS011;53653;52.188;8.602;2023-02-04T01:56:51;22.67;;;3.10;;
66739;SDS011;53653;52.188;8.602;2023-02-04T01:59:19;33.83;;;4.45;;
66739;SDS011;53653;52.188;8.602;2023-02-04T02:01:46;29.37;;;3.70;;
66739;SDS011;53653;52.188;8.602;2023-02-04T02:04:15;22.80;;;3.50;;
66739;SDS011;53653;52.188;8.602;2023-02-04T02:06:46;28.08;;;3.70;;
66739;SDS011;53653;52.188;8.602;2023-02-04T02:09:16;21.00;;;3.25;;
66739;SDS011;53653;52.188;8.602;2023-02-04T02:11:42;19.30;;;3.63;;
66739;SDS011;53653;52.188;8.602;2023-02-04T02:14:07;23.20;;;2.97;;
66739;SDS011;53653;52.188;8.602;2023-02-04T02:16:33;20.37;;;2.97;;
66739;SDS011;53653;52.188;8.602;2023-02-04T02:18:59;12.23;;;2.17;;
66739;SDS011;53653;52.188;8.602;2023-02-04T02:21:58;18.37;;;2.30;;
66739;SDS011;53653;52.188;8.602;2023-02-04T02:24:37;13.63;;;1.95;;
66739;SDS011;53653;52.188;8.602;2023-02-04T02:27:04;28.73;;;3.17;;
66739;SDS011;53653;52.188;8.602;2023-02-04T02:29:32;12.32;;;1.90;;
66739;SDS011;53653;52.188;8.602;2023-02-04T02:31:58;11.82;;;1.90;;
66739;SDS011;53653;52.188;8.602;2023-02-04T02:34:27;15.80;;;2.53;;
66739;SDS011;53653;52.188;8.602;2023-02-04T02:36:54;15.35;;;2.42;;
66739;SDS011;53653;52.188;8.602;2023-02-04T02:39:22;6.43;;;1.58;;
66739;SDS011;53653;52.188;8.602;2023-02-04T02:41:48;17.98;;;2.53;;
66739;SDS011;53653;52.188;8.602;2023-02-04T02:44:13;16.30;;;2.20;;
66739;SDS011;53653;52.188;8.602;2023-02-04T02:46:40;13.63;;;2.83;;
66739;SDS011;53653;52.188;8.602;2023-02-04T02:49:07;13.90;;;1.70;;
66739;SDS011;53653;52.188;8.602;2023-02-04T02:51:38;16.60;;;2.10;;
66739;SDS011;53653;52.188;8.602;2023-02-04T02:54:04;17.27;;;2.40;;
66739;SDS011;53653;52.188;8.602;2023-02-04T02:56:29;13.70;;;2.10;;
66739;SDS011;53653;52.188;8.602;2023-02-04T02:59:06;16.00;;;2.28;;
66739;SDS011;53653;52.188;8.602;2023-02-04T03:01:37;14.93;;;1.90;;
66739;SDS011;53653;52.188;8.602;2023-02-04T03:04:03;10.85;;;1.65;;
66739;SDS011;53653;52.188;8.602;2023-02-04T03:06:29;12.70;;;2.03;;
66739;SDS011;53653;52.188;8.602;2023-02-04T03:08:54;12.07;;;1.67;;
66739;SDS011;53653;52.188;8.602;2023-02-04T03:11:21;17.88;;;1.77;;
66739;SDS011;53653;52.188;8.602;2023-02-04T03:13:48;17.23;;;2.40;;
66739;SDS011;53653;52.188;8.602;2023-02-04T03:16:16;10.63;;;1.73;;
66739;SDS011;53653;52.188;8.602;2023-02-04T03:18:41;11.33;;;1.30;;
66739;SDS011;53653;52.188;8.602;2023-02-04T03:21:10;13.57;;;1.67;;
66739;SDS011;53653;52.188;8.602;2023-02-04T03:23:35;12.57;;;1.90;;
66739;SDS011;53653;52.188;8.602;2023-02-04T03:26:02;9.60;;;1.40;;
66739;SDS011;53653;52.188;8.602;2023-02-04T03:28:29;8.38;;;1.40;;
66739;SDS011;53653;52.188;8.602;2023-02-04T03:30:56;13.68;;;1.58;;
66739;SDS011;53653;52.188;8.602;2023-02-04T03:33:23;13.47;;;1.73;;
66739;SDS011;53653;52.188;8.602;2023-02-04T03:35:56;9.25;;;1.73;;
66739;SDS011;53653;52.188;8.602;2023-02-04T03:38:22;12.80;;;1.63;;
66739;SDS011;53653;52.188;8.602;2023-02-04T03:40:47;12.97;;;1.60;;
66739;SDS011;53653;52.188;8.602;2023-02-04T03:43:13;11.15;;;2.20;;
66739;SDS011;53653;52.188;8.602;2023-02-04T03:45:38;12.63;;;1.30;;
66739;SDS011;53653;52.188;8.602;2023-02-04T03:48:03;11.67;;;1.53;;
66739;SDS011;53653;52.188;8.602;2023-02-04T03:50:29;7.40;;;1.40;;
66739;SDS011;53653;52.188;8.602;2023-02-04T03:52:54;12.50;;;1.40;;
66739;SDS011;53653;52.188;8.602;2023-02-04T03:55:20;7.93;;;1.17;;
66739;SDS011;53653;52.188;8.602;2023-02-04T03:57:45;10.73;;;1.50;;
66739;SDS011;53653;52.188;8.602;2023-02-04T04:00:11;7.43;;;1.20;;
66739;SDS011;53653;52.188;8.602;2023-02-04T04:02:38;11.25;;;2.13;;
66739;SDS011;53653;52.188;8.602;2023-02-04T04:05:05;7.82;;;1.15;;
66739;SDS011;53653;52.188;8.602;2023-02-04T04:07:32;13.38;;;1.33;;
66739;SDS011;53653;52.188;8.602;2023-02-04T04:09:57;6.63;;;0.90;;
66739;SDS011;53653;52.188;8.602;2023-02-04T04:12:22;10.27;;;1.90;;
66739;SDS011;53653;52.188;8.602;2023-02-04T04:14:48;11.30;;;1.30;;
66739;SDS011;53653;52.188;8.602;2023-02-04T04:17:13;12.47;;;1.83;;
66739;SDS011;53653;52.188;8.602;2023-02-04T04:19:39;6.53;;;1.20;;
66739;SDS011;53653;52.188;8.602;2023-02-04T04:22:04;8.57;;;1.20;;
66739;SDS011;53653;52.188;8.602;2023-02-04T04:24:30;8.35;;;1.30;;
66739;SDS011;53653;52.188;8.602;2023-02-04T04:26:55;6.53;;;1.23;;
66739;SDS011;53653;52.188;8.602;2023-02-04T04:29:21;13.50;;;1.40;;
66739;SDS011;53653;52.188;8.602;2023-02-04T04:31:46;8.33;;;1.43;;
66739;SDS011;53653;52.188;8.602;2023-02-04T04:34:12;7.15;;;1.05;;
66739;SDS011;53653;52.188;8.602;2023-02-04T04:36:37;7.07;;;1.00;;
66739;SDS011;53653;52.188;8.602;2023-02-04T04:39:03;7.43;;;1.20;;
66739;SDS011;53653;52.188;8.602;2023-02-04T04:41:28;6.85;;;1.33;;
66739;SDS011;53653;52.188;8.602;2023-02-04T04:43:54;6.80;;;1.10;;
66739;SDS011;53653;52.188;8.602;2023-02-04T04:46:19;4.77;;;0.90;;
66739;SDS011;53653;52.188;8.602;2023-02-04T04:48:44;6.83;;;1.20;;
66739;SDS011;53653;52.188;8.602;2023-02-04T04:51:10;8.43;;;1.67;;
66739;SDS011;53653;52.188;8.602;2023-02-04T04:53:35;4.67;;;1.00;;
66739;SDS011;53653;52.188;8.602;2023-02-04T04:56:01;7.97;;;1.20;;
66739;SDS011;53653;52.188;8.602;2023-02-04T04:58:26;9.77;;;1.25;;
66739;SDS011;53653;52.188;8.602;2023-02-04T05:00:52;11.30;;;2.07;;
66739;SDS011;53653;52.188;8.602;2023-02-04T05:03:17;5.80;;;1.20;;
66739;SDS011;53653;52.188;8.602;2023-02-04T05:05:43;8.33;;;1.47;;
66739;SDS011;53653;52.188;8.602;2023-02-04T05:08:08;8.10;;;1.73;;
66739;SDS011;53653;52.188;8.602;2023-02-04T05:10:37;8.70;;;1.40;;
66739;SDS011;53653;52.188;8.602;2023-02-04T05:13:06;7.57;;;1.57;;
66739;SDS011;53653;52.188;8.602;2023-02-04T05:15:31;9.90;;;1.70;;
66739;SDS011;53653;52.188;8.602;2023-02-04T05:17:57;9.17;;;1.83;;
66739;SDS011;53653;52.188;8.602;2023-02-04T05:20:23;12.55;;;1.83;;
66739;SDS011;53653;52.188;8.602;2023-02-04T05:22:49;9.30;;;1.73;;
66739;SDS011;53653;52.188;8.602;2023-02-04T05:25:14;10.70;;;1.40;;
66739;SDS011;53653;52.188;8.602;2023-02-04T05:27:41;9.45;;;1.52;;
66739;SDS011;53653;52.188;8.602;2023-02-04T05:30:08;9.73;;;1.50;;
66739;SDS011;53653;52.188;8.602;2023-02-04T05:32:35;8.27;;;1.23;;
66739;SDS011;53653;52.188;8.602;2023-02-04T05:35:00;9.75;;;1.20;;
66739;SDS011;53653;52.188;8.602;2023-02-04T05:37:26;6.03;;;1.50;;
66739;SDS011;53653;52.188;8.602;2023-02-04T05:39:52;10.73;;;1.83;;
66739;SDS011;53653;52.188;8.602;2023-02-04T05:42:17;11.30;;;1.80;;
66739;SDS011;53653;52.188;8.602;2023-02-04T05:44:43;11.90;;;1.60;;
66739;SDS011;53653;52.188;8.602;2023-02-04T05:47:08;8.50;;;1.83;;
66739;SDS011;53653;52.188;8.602;2023-02-04T05:49:34;10.77;;;2.00;;
66739;SDS011;53653;52.188;8.602;2023-02-04T05:52:00;9.27;;;1.83;;
66739;SDS011;53653;52.188;8.602;2023-02-04T05:54:25;12.77;;;2.17;;
66739;SDS011;53653;52.188;8.602;2023-02-04T05:56:51;13.30;;;2.40;;
66739;SDS011;53653;52.188;8.602;2023-02-04T05:59:16;7.10;;;1.90;;
66739;SDS011;53653;52.188;8.602;2023-02-04T06:01:42;8.32;;;2.20;;
66739;SDS011;53653;52.188;8.602;2023-02-04T06:04:08;11.90;;;2.45;;
66739;SDS011;53653;52.188;8.602;2023-02-04T06:06:33;10.07;;;1.90;;
66739;SDS011;53653;52.188;8.602;2023-02-04T06:08:59;10.07;;;2.07;;
66739;SDS011;53653;52.188;8.602;2023-02-04T06:11:25;9.18;;;2.05;;
66739;SDS011;53653;52.188;8.602;2023-02-04T06:13:51;10.23;;;2.17;;
66739;SDS011;53653;52.188;8.602;2023-02-04T06:16:16;9.45;;;2.15;;
66739;SDS011;53653;52.188;8.602;2023-02-04T06:18:42;14.80;;;2.40;;
66739;SDS011;53653;52.188;8.602;2023-02-04T06:21:07;12.20;;;2.20;;
66739;SDS011;53653;52.188;8.602;2023-02-04T06:23:33;9.20;;;2.17;;
66739;SDS011;53653;52.188;8.602;2023-02-04T06:25:59;10.30;;;2.13;;
66739;SDS011;53653;52.188;8.602;2023-02-04T06:28:27;9.85;;;2.10;;
66739;SDS011;53653;52.188;8.602;2023-02-04T06:30:52;11.60;;;2.30;;
66739;SDS011;53653;52.188;8.602;2023-02-04T06:33:17;8.87;;;2.10;;
66739;SDS011;53653;52.188;8.602;2023-02-04T06:35:43;13.60;;;3.53;;
66739;SDS011;53653;52.188;8.602;2023-02-04T06:38:08;14.47;;;3.10;;
66739;SDS011;53653;52.188;8.602;2023-02-04T06:40:34;12.25;;;2.90;;
66739;SDS011;53653;52.188;8.602;2023-02-04T06:43:00;8.73;;;1.90;;
66739;SDS011;53653;52.188;8.602;2023-02-04T06:45:25;8.30;;;2.10;;
66739;SDS011;53653;52.188;8.602;2023-02-04T06:47:50;8.53;;;1.93;;
66739;SDS011;53653;52.188;8.602;2023-02-04T06:50:16;9.17;;;2.30;;
66739;SDS011;53653;52.188;8.602;2023-02-04T06:52:45;10.30;;;2.00;;
66739;SDS011;53653;52.188;8.602;2023-02-04T06:55:12;11.57;;;2.80;;
66739;SDS011;53653;52.188;8.602;2023-02-04T06:57:40;12.43;;;2.77;;
66739;SDS011;53653;52.188;8.602;2023-02-04T07:00:07;10.55;;;3.50;;
66739;SDS011;53653;52.188;8.602;2023-02-04T07:02:34;11.10;;;3.03;;
66739;SDS011;53653;52.188;8.602;2023-02-04T07:04:59;10.40;;;2.63;;
66739;SDS011;53653;52.188;8.602;2023-02-04T07:07:25;11.23;;;2.80;;
66739;SDS011;53653;52.188;8.602;2023-02-04T07:09:51;11.55;;;2.40;;
66739;SDS011;53653;52.188;8.602;2023-02-04T07:12:17;11.73;;;2.50;;
66739;SDS011;53653;52.188;8.602;2023-02-04T07:14:42;12.52;;;2.55;;
66739;SDS011;53653;52.188;8.602;2023-02-04T07:17:08;11.70;;;2.77;;
66739;SDS011;53653;52.188;8.602;2023-02-04T07:19:33;10.63;;;2.70;;
66739;SDS011;53653;52.188;8.602;2023-02-04T07:22:00;6.78;;;2.47;;
66739;SDS011;53653;52.188;8.602;2023-02-04T07:24:26;10.98;;;2.70;;
66739;SDS011;53653;52.188;8.602;2023-02-04T07:26:51;10.10;;;3.00;;
66739;SDS011;53653;52.188;8.602;2023-02-04T07:29:17;9.20;;;2.70;;
66739;SDS011;53653;52.188;8.602;2023-02-04T07:31:45;11.68;;;2.92;;
66739;SDS011;53653;52.188;8.602;2023-02-04T07:34:12;10.25;;;2.80;;
66739;SDS011;53653;52.188;8.602;2023-02-04T07:36:38;12.87;;;3.17;;
66739;SDS011;53653;52.188;8.602;2023-02-04T07:39:04;9.45;;;3.38;;
66739;SDS011;53653;52.188;8.602;2023-02-04T07:41:29;10.80;;;3.17;;
66739;SDS011;53653;52.188;8.602;2023-02-04T07:43:55;9.13;;;3.67;;
66739;SDS011;53653;52.188;8.602;2023-02-04T07:46:20;14.37;;;3.77;;
66739;SDS011;53653;52.188;8.602;2023-02-04T07:48:46;14.50;;;6.17;;
66739;SDS011;53653;52.188;8.602;2023-02-04T07:51:11;20.00;;;8.90;;
66739;SDS011;53653;52.188;8.602;2023-02-04T07:53:37;25.60;;;10.00;;
66739;SDS011;53653;52.188;8.602;2023-02-04T07:56:02;18.53;;;7.30;;
66739;SDS011;53653;52.188;8.602;2023-02-04T07:58:28;12.93;;;5.57;;
66739;SDS011;53653;52.188;8.602;2023-02-04T08:00:54;12.93;;;4.40;;
66739;SDS011;53653;52.188;8.602;2023-02-04T08:03:19;12.57;;;4.10;;
66739;SDS011;53653;52.188;8.602;2023-02-04T08:05:46;10.13;;;3.58;;
66739;SDS011;53653;52.188;8.602;2023-02-04T08:08:11;11.18;;;4.00;;
66739;SDS011;53653;52.188;8.602;2023-02-04T08:10:37;11.00;;;3.80;;
66739;SDS011;53653;52.188;8.602;2023-02-04T08:13:02;10.67;;;3.63;;
66739;SDS011;53653;52.188;8.602;2023-02-04T08:15:28;12.73;;;4.07;;
66739;SDS011;53653;52.188;8.602;2023-02-04T08:17:53;10.32;;;3.70;;
66739;SDS011;53653;52.188;8.602;2023-02-04T08:20:18;11.70;;;4.30;;
66739;SDS011;53653;52.188;8.602;2023-02-04T08:22:44;9.37;;;3.90;;
66739;SDS011;53653;52.188;8.602;2023-02-04T08:25:10;12.13;;;4.10;;
66739;SDS011;53653;52.188;8.602;2023-02-04T08:27:36;13.10;;;4.20;;
66739;SDS011;53653;52.188;8.602;2023-02-04T08:30:02;13.00;;;3.95;;
66739;SDS011;53653;52.188;8.602;2023-02-04T08:32:28;10.40;;;4.18;;
66739;SDS011;53653;52.188;8.602;2023-02-04T08:34:55;9.85;;;3.80;;
66739;SDS011;53653;52.188;8.602;2023-02-04T08:37:21;8.37;;;2.93;;
66739;SDS011;53653;52.188;8.602;2023-02-04T08:39:47;10.43;;;3.58;;
66739;SDS011;53653;52.188;8.602;2023-02-04T08:42:13;11.27;;;4.25;;
66739;SDS011;53653;52.188;8.602;2023-02-04T08:44:39;11.03;;;3.50;;
66739;SDS011;53653;52.188;8.602;2023-02-04T08:47:05;10.75;;;3.55;;
66739;SDS011;53653;52.188;8.602;2023-02-04T08:49:31;8.03;;;3.27;;
66739;SDS011;53653;52.188;8.602;2023-02-04T08:51:56;7.93;;;2.85;;
66739;SDS011;53653;52.188;8.602;2023-02-04T08:54:22;11.17;;;3.30;;
66739;SDS011;53653;52.188;8.602;2023-02-04T08:56:47;7.75;;;3.08;;
66739;SDS011;53653;52.188;8.602;2023-02-04T08:59:13;9.73;;;2.70;;
66739;SDS011;53653;52.188;8.602;2023-02-04T09:01:38;6.57;;;2.80;;
66739;SDS011;53653;52.188;8.602;2023-02-04T09:04:04;10.88;;;2.60;;
66739;SDS011;53653;52.188;8.602;2023-02-04T09:06:29;6.83;;;2.60;;
66739;SDS011;53653;52.188;8.602;2023-02-04T09:08:55;7.10;;;2.80;;
66739;SDS011;53653;52.188;8.602;2023-02-04T09:11:20;9.63;;;3.30;;
66739;SDS011;53653;52.188;8.602;2023-02-04T09:13:46;6.30;;;2.30;;
66739;SDS011;53653;52.188;8.602;2023-02-04T09:16:11;7.17;;;2.90;;
66739;SDS011;53653;52.188;8.602;2023-02-04T09:18:36;6.50;;;2.50;;
66739;SDS011;53653;52.188;8.602;2023-02-04T09:21:02;6.97;;;2.50;;
66739;SDS011;53653;52.188;8.602;2023-02-04T09:23:28;10.32;;;3.35;;
66739;SDS011;53653;52.188;8.602;2023-02-04T09:25:54;9.35;;;3.17;;
66739;SDS011;53653;52.188;8.602;2023-02-04T09:28:19;8.80;;;3.10;;
66739;SDS011;53653;52.188;8.602;2023-02-04T09:30:45;7.10;;;3.03;;
66739;SDS011;53653;52.188;8.602;2023-02-04T09:33:11;10.32;;;3.30;;
66739;SDS011;53653;52.188;8.602;2023-02-04T09:35:39;8.07;;;3.00;;
66739;SDS011;53653;52.188;8.602;2023-02-04T09:38:04;8.00;;;2.83;;
66739;SDS011;53653;52.188;8.602;2023-02-04T09:40:31;9.63;;;3.17;;
66739;SDS011;53653;52.188;8.602;2023-02-04T09:43:00;6.88;;;2.65;;
66739;SDS011;53653;52.188;8.602;2023-02-04T09:45:27;7.25;;;2.75;;
66739;SDS011;53653;52.188;8.602;2023-02-04T09:47:57;7.80;;;2.70;;
66739;SDS011;53653;52.188;8.602;2023-02-04T09:50:25;9.10;;;3.20;;
66739;SDS011;53653;52.188;8.602;2023-02-04T09:52:53;7.40;;;2.67;;
66739;SDS011;53653;52.188;8.602;2023-02-04T09:55:21;8.82;;;3.00;;
66739;SDS011;53653;52.188;8.602;2023-02-04T09:57:54;7.20;;;3.00;;
66739;SDS011;53653;52.188;8.602;2023-02-04T10:00:21;10.00;;;3.03;;
66739;SDS011;53653;52.188;8.602;2023-02-04T10:02:50;8.10;;;2.90;;
66739;SDS011;53653;52.188;8.602;2023-02-04T10:05:17;7.40;;;2.80;;
66739;SDS011;53653;52.188;8.602;2023-02-04T10:07:45;6.85;;;2.53;;
66739;SDS011;53653;52.188;8.602;2023-02-04T10:10:15;9.68;;;3.15;;
66739;SDS011;53653;52.188;8.602;2023-02-04T10:12:43;6.38;;;2.78;;
66739;SDS011;53653;52.188;8.602;2023-02-04T10:15:15;6.28;;;2.15;;
66739;SDS011;53653;52.188;8.602;2023-02-04T10:17:47;5.57;;;2.20;;
66739;SDS011;53653;52.188;8.602;2023-02-04T10:20:17;6.88;;;2.88;;
66739;SDS011;53653;52.188;8.602;2023-02-04T10:22:45;7.35;;;3.00;;
66739;SDS011;53653;52.188;8.602;2023-02-04T10:25:13;5.25;;;2.08;;
66739;SDS011;53653;52.188;8.602;2023-02-04T10:27:52;6.10;;;2.40;;
66739;SDS011;53653;52.188;8.602;2023-02-04T10:30:29;7.77;;;2.63;;
66739;SDS011;53653;52.188;8.602;2023-02-04T10:32:59;6.95;;;2.22;;
66739;SDS011;53653;52.188;8.602;2023-02-04T10:35:43;6.30;;;2.13;;
66739;SDS011;53653;52.188;8.602;2023-02-04T10:38:13;6.68;;;2.10;;
66739;SDS011;53653;52.188;8.602;2023-02-04T10:40:38;6.67;;;2.27;;
66739;SDS011;53653;52.188;8.602;2023-02-04T10:45:34;6.20;;;2.00;;
66739;SDS011;53653;52.188;8.602;2023-02-04T10:47:59;5.37;;;2.00;;
66739;SDS011;53653;52.188;8.602;2023-02-04T10:50:26;6.93;;;1.95;;
66739;SDS011;53653;52.188;8.602;2023-02-04T10:52:55;6.20;;;2.60;;
66739;SDS011;53653;52.188;8.602;2023-02-04T10:55:45;6.97;;;2.40;;
66739;SDS011;53653;52.188;8.602;2023-02-04T10:58:13;5.20;;;1.90;;
66739;SDS011;53653;52.188;8.602;2023-02-04T11:00:42;5.45;;;2.10;;
66739;SDS011;53653;52.188;8.602;2023-02-04T11:03:13;6.40;;;2.30;;
66739;SDS011;53653;52.188;8.602;2023-02-04T11:05:42;6.32;;;2.00;;
66739;SDS011;53653;52.188;8.602;2023-02-04T11:08:16;10.57;;;2.40;;
66739;SDS011;53653;52.188;8.602;2023-02-04T11:10:43;5.72;;;2.10;;
66739;SDS011;53653;52.188;8.602;2023-02-04T11:13:18;6.15;;;2.05;;
66739;SDS011;53653;52.188;8.602;2023-02-04T11:15:54;6.07;;;2.50;;
66739;SDS011;53653;52.188;8.602;2023-02-04T11:18:32;5.30;;;1.90;;
66739;SDS011;53653;52.188;8.602;2023-02-04T11:21:22;6.78;;;2.20;;
66739;SDS011;53653;52.188;8.602;2023-02-04T11:26:50;5.88;;;2.00;;
66739;SDS011;53653;52.188;8.602;2023-02-04T11:29:30;5.75;;;2.30;;
66739;SDS011;53653;52.188;8.602;2023-02-04T11:34:50;7.72;;;2.08;;
66739;SDS011;53653;52.188;8.602;2023-02-04T11:37:27;6.57;;;2.20;;
66739;SDS011;53653;52.188;8.602;2023-02-04T11:39:59;5.57;;;1.80;;
66739;SDS011;53653;52.188;8.602;2023-02-04T11:42:37;6.13;;;2.15;;
66739;SDS011;53653;52.188;8.602;2023-02-04T11:45:12;5.60;;;2.07;;
66739;SDS011;53653;52.188;8.602;2023-02-04T11:47:40;5.55;;;2.10;;
66739;SDS011;53653;52.188;8.602;2023-02-04T11:50:11;6.63;;;2.20;;
66739;SDS011;53653;52.188;8.602;2023-02-04T11:52:37;5.70;;;2.25;;
66739;SDS011;53653;52.188;8.602;2023-02-04T11:55:02;4.80;;;1.70;;
66739;SDS011;53653;52.188;8.602;2023-02-04T11:57:28;8.07;;;2.10;;
66739;SDS011;53653;52.188;8.602;2023-02-04T12:00:01;6.38;;;2.00;;
66739;SDS011;53653;52.188;8.602;2023-02-04T12:02:39;9.48;;;2.65;;
66739;SDS011;53653;52.188;8.602;2023-02-04T12:05:09;6.90;;;2.10;;
66739;SDS011;53653;52.188;8.602;2023-02-04T12:07:37;5.75;;;2.25;;
66739;SDS011;53653;52.188;8.602;2023-02-04T12:12:47;6.75;;;2.50;;
66739;SDS011;53653;52.188;8.602;2023-02-04T12:15:16;5.70;;;2.17;;
66739;SDS011;53653;52.188;8.602;2023-02-04T12:18:06;5.28;;;2.13;;
66739;SDS011;53653;52.188;8.602;2023-02-04T12:20:33;6.38;;;2.10;;
66739;SDS011;53653;52.188;8.602;2023-02-04T12:23:03;6.37;;;2.20;;
66739;SDS011;53653;52.188;8.602;2023-02-04T12:25:29;5.93;;;2.40;;
66739;SDS011;53653;52.188;8.602;2023-02-04T12:27:55;4.82;;;1.85;;
66739;SDS011;53653;52.188;8.602;2023-02-04T12:30:21;6.17;;;2.20;;
66739;SDS011;53653;52.188;8.602;2023-02-04T12:32:47;5.45;;;1.80;;
66739;SDS011;53653;52.188;8.602;2023-02-04T12:35:13;5.22;;;1.90;;
66739;SDS011;53653;52.188;8.602;2023-02-04T12:37:39;8.80;;;2.17;;
66739;SDS011;53653;52.188;8.602;2023-02-04T12:40:04;8.07;;;2.50;;
66739;SDS011;53653;52.188;8.602;2023-02-04T12:42:30;7.47;;;1.97;;
66739;SDS011;53653;52.188;8.602;2023-02-04T12:44:56;6.72;;;2.00;;
66739;SDS011;53653;52.188;8.602;2023-02-04T12:47:21;6.87;;;2.10;;
66739;SDS011;53653;52.188;8.602;2023-02-04T12:49:47;6.33;;;2.40;;
66739;SDS011;53653;52.188;8.602;2023-02-04T12:52:12;5.03;;;1.90;;
66739;SDS011;53653;52.188;8.602;2023-02-04T12:54:38;5.93;;;2.47;;
66739;SDS011;53653;52.188;8.602;2023-02-04T12:57:03;6.57;;;2.30;;
66739;SDS011;53653;52.188;8.602;2023-02-04T12:59:29;5.00;;;2.03;;
66739;SDS011;53653;52.188;8.602;2023-02-04T13:01:55;5.10;;;1.90;;
66739;SDS011;53653;52.188;8.602;2023-02-04T13:04:21;6.75;;;2.15;;
66739;SDS011;53653;52.188;8.602;2023-02-04T13:06:47;5.50;;;2.10;;
66739;SDS011;53653;52.188;8.602;2023-02-04T13:09:12;6.47;;;2.00;;
66739;SDS011;53653;52.188;8.602;2023-02-04T13:11:38;7.03;;;2.20;;
66739;SDS011;53653;52.188;8.602;2023-02-04T13:14:03;5.47;;;1.90;;
66739;SDS011;53653;52.188;8.602;2023-02-04T13:16:29;8.30;;;2.40;;
66739;SDS011;53653;52.188;8.602;2023-02-04T13:18:54;6.03;;;1.83;;
66739;SDS011;53653;52.188;8.602;2023-02-04T13:21:19;5.67;;;1.93;;
66739;SDS011;53653;52.188;8.602;2023-02-04T13:23:45;6.33;;;2.07;;
66739;SDS011;53653;52.188;8.602;2023-02-04T13:26:11;4.57;;;1.77;;
66739;SDS011;53653;52.188;8.602;2023-02-04T13:28:36;6.03;;;2.40;;
66739;SDS011;53653;52.188;8.602;2023-02-04T13:31:02;4.65;;;1.73;;
66739;SDS011;53653;52.188;8.602;2023-02-04T13:33:27;5.63;;;1.50;;
66739;SDS011;53653;52.188;8.602;2023-02-04T13:35:53;4.03;;;1.33;;
66739;SDS011;53653;52.188;8.602;2023-02-04T13:38:18;5.13;;;1.30;;
66739;SDS011;53653;52.188;8.602;2023-02-04T13:40:44;5.87;;;1.70;;
66739;SDS011;53653;52.188;8.602;2023-02-04T13:43:09;5.20;;;1.73;;
66739;SDS011;53653;52.188;8.602;2023-02-04T13:45:35;6.72;;;2.28;;
66739;SDS011;53653;52.188;8.602;2023-02-04T13:48:00;6.40;;;2.50;;
66739;SDS011;53653;52.188;8.602;2023-02-04T13:50:26;5.10;;;1.90;;
66739;SDS011;53653;52.188;8.602;2023-02-04T13:52:51;5.20;;;1.73;;
66739;SDS011;53653;52.188;8.602;2023-02-04T13:55:17;5.50;;;1.77;;
66739;SDS011;53653;52.188;8.602;2023-02-04T13:57:42;6.63;;;2.10;;
66739;SDS011;53653;52.188;8.602;2023-02-04T14:00:08;8.13;;;1.83;;
66739;SDS011;53653;52.188;8.602;2023-02-04T14:02:40;5.28;;;1.98;;
66739;SDS011;53653;52.188;8.602;2023-02-04T14:05:06;4.93;;;1.67;;
66739;SDS011;53653;52.188;8.602;2023-02-04T14:07:32;6.30;;;1.90;;
66739;SDS011;53653;52.188;8.602;2023-02-04T14:09:58;5.32;;;2.17;;
66739;SDS011;53653;52.188;8.602;2023-02-04T14:12:24;7.60;;;2.37;;
66739;SDS011;53653;52.188;8.602;2023-02-04T14:14:49;5.97;;;2.17;;
66739;SDS011;53653;52.188;8.602;2023-02-04T14:17:15;5.20;;;2.00;;
66739;SDS011;53653;52.188;8.602;2023-02-04T14:19:40;6.55;;;2.40;;
66739;SDS011;53653;52.188;8.602;2023-02-04T14:22:06;5.57;;;2.10;;
66739;SDS011;53653;52.188;8.602;2023-02-04T14:24:32;5.20;;;2.25;;
66739;SDS011;53653;52.188;8.602;2023-02-04T14:26:57;7.47;;;2.37;;
66739;SDS011;53653;52.188;8.602;2023-02-04T14:29:23;7.60;;;3.70;;
66739;SDS011;53653;52.188;8.602;2023-02-04T14:31:48;8.65;;;2.60;;
66739;SDS011;53653;52.188;8.602;2023-02-04T14:34:14;5.40;;;1.80;;
66739;SDS011;53653;52.188;8.602;2023-02-04T14:36:39;5.40;;;1.93;;
66739;SDS011;53653;52.188;8.602;2023-02-04T14:39:05;7.65;;;2.17;;
66739;SDS011;53653;52.188;8.602;2023-02-04T14:41:32;6.15;;;2.50;;
66739;SDS011;53653;52.188;8.602;2023-02-04T14:43:57;5.33;;;2.20;;
66739;SDS011;53653;52.188;8.602;2023-02-04T14:46:23;7.33;;;2.40;;
66739;SDS011;53653;52.188;8.602;2023-02-04T14:48:48;6.47;;;2.30;;